createdAt,value
2023-04-29T00:01:31.584Z,99512.44
2023-04-29T00:03:58.791Z,99514.19
2023-04-29T00:06:25.990Z,99509.16
2023-04-29T00:08:53.209Z,99508.34
2023-04-29T00:11:20.503Z,99512.69
2023-04-29T00:13:47.468Z,99515.28
2023-04-29T00:16:14.838Z,99511.09
2023-04-29T00:18:41.838Z,99520.50
2023-04-29T00:21:08.821Z,99520.56
2023-04-29T00:23:36.036Z,99522.28
2023-04-29T00:26:03.448Z,99525.72
2023-04-29T00:28:30.512Z,99530.00
2023-04-29T00:30:57.838Z,99533.41
2023-04-29T00:33:24.923Z,99533.41
2023-04-29T00:35:52.035Z,99536.78
2023-04-29T00:38:21.105Z,99541.06
2023-04-29T00:40:48.484Z,99535.91
2023-04-29T00:43:15.655Z,99548.69
2023-04-29T00:45:43.630Z,99546.97
2023-04-29T00:48:10.732Z,99550.41
2023-04-29T00:50:37.982Z,99547.94
2023-04-29T00:53:05.487Z,99544.56
2023-04-29T00:55:34.058Z,99547.09
2023-04-29T00:58:02.570Z,99548.00
2023-04-29T01:00:30.185Z,99548.91
2023-04-29T01:02:59.507Z,99558.28
2023-04-29T01:05:27.667Z,99559.16
2023-04-29T01:08:29.149Z,99560.03
2023-04-29T01:11:10.825Z,99559.25
2023-04-29T01:13:46.135Z,99562.69
2023-04-29T01:16:34.924Z,99563.59
2023-04-29T01:19:27.295Z,99567.88
2023-04-29T01:21:54.488Z,99574.69
2023-04-29T01:24:21.705Z,99562.81
2023-04-29T01:27:05.169Z,99569.63
2023-04-29T01:30:00.059Z,99574.81
2023-04-29T01:32:48.290Z,99579.91
2023-04-29T01:35:52.801Z,99575.72
2023-04-29T01:38:44.723Z,99575.78
2023-04-29T01:41:18.736Z,99574.06
2023-04-29T01:43:52.592Z,99584.25
2023-04-29T01:46:24.589Z,99583.44
2023-04-29T01:48:55.989Z,99576.66
2023-04-29T01:51:23.718Z,99578.34
2023-04-29T01:53:50.731Z,99585.13
2023-04-29T01:56:18.742Z,99581.75
2023-04-29T01:59:14.712Z,99582.66
2023-04-29T02:02:11.700Z,99586.91
2023-04-29T02:04:46.566Z,99584.44
2023-04-29T02:07:13.907Z,99588.69
2023-04-29T02:09:41.075Z,99586.13
2023-04-29T02:12:11.269Z,99581.88
2023-04-29T02:14:38.266Z,99592.09
2023-04-29T02:17:05.966Z,99587.03
2023-04-29T02:19:33.391Z,99587.94
2023-04-29T02:22:00.883Z,99587.94
2023-04-29T02:24:31.208Z,99589.59
2023-04-29T02:26:59.093Z,99595.50
2023-04-29T02:29:27.128Z,99593.03
2023-04-29T02:31:55.103Z,99598.06
2023-04-29T02:34:22.120Z,99596.38
2023-04-29T02:36:49.049Z,99593.81
2023-04-29T02:39:16.839Z,99604.84
2023-04-29T02:41:44.059Z,99604.03
2023-04-29T02:44:12.342Z,99610.81
2023-04-29T02:46:41.472Z,99615.94
2023-04-29T02:49:08.517Z,99615.16
2023-04-29T02:51:35.625Z,99621.91
2023-04-29T02:54:02.718Z,99620.25
2023-04-29T02:56:29.728Z,99622.81
2023-04-29T02:58:56.814Z,99624.50
2023-04-29T03:01:24.261Z,99618.59
2023-04-29T03:03:51.994Z,99623.69
2023-04-29T03:06:19.205Z,99623.69
2023-04-29T03:08:46.503Z,99625.44
2023-04-29T03:11:13.490Z,99636.41
2023-04-29T03:13:40.549Z,99633.88
2023-04-29T03:16:08.548Z,99630.53
2023-04-29T03:18:35.696Z,99632.22
2023-04-29T03:21:04.625Z,99631.41
2023-04-29T03:23:31.681Z,99635.63
2023-04-29T03:25:59.115Z,99638.22
2023-04-29T03:28:26.332Z,99638.25
2023-04-29T03:30:53.439Z,99645.03
2023-04-29T03:33:20.502Z,99642.53
2023-04-29T03:35:48.219Z,99645.06
2023-04-29T03:38:34.056Z,99634.91
2023-04-29T03:41:02.134Z,99639.16
2023-04-29T03:43:29.174Z,99639.97
2023-04-29T03:45:56.294Z,99650.16
2023-04-29T03:48:24.716Z,99645.06
2023-04-29T03:50:53.140Z,99640.84
2023-04-29T03:53:21.849Z,99651.00
2023-04-29T03:55:48.869Z,99643.41
2023-04-29T03:58:16.687Z,99653.63
2023-04-29T04:00:44.348Z,99651.13
2023-04-29T04:03:16.733Z,99657.06
2023-04-29T04:05:44.345Z,99658.78
2023-04-29T04:08:14.689Z,99659.66
2023-04-29T04:10:51.106Z,99663.06
2023-04-29T04:13:31.527Z,99662.25
2023-04-29T04:15:58.716Z,99663.19
2023-04-29T04:18:26.103Z,99664.94
2023-04-29T04:20:53.106Z,99675.13
2023-04-29T04:23:20.180Z,99690.44
2023-04-29T04:25:50.296Z,99687.06
2023-04-29T04:28:55.571Z,99685.41
2023-04-29T04:31:45.475Z,99686.28
2023-04-29T04:34:13.992Z,99693.13
2023-04-29T04:36:42.216Z,99692.28
2023-04-29T04:39:09.293Z,99690.59
2023-04-29T04:41:36.287Z,99700.78
2023-04-29T04:44:04.026Z,99699.97
2023-04-29T04:46:42.467Z,99709.31
2023-04-29T04:49:14.653Z,99712.72
2023-04-29T04:51:49.006Z,99711.06
2023-04-29T04:54:16.013Z,99722.09
2023-04-29T04:56:43.358Z,99723.81
2023-04-29T04:59:10.428Z,99725.50
2023-04-29T05:01:39.152Z,99734.88
2023-04-29T05:04:06.676Z,99736.56
2023-04-29T05:06:33.809Z,99747.56
2023-04-29T05:09:01.004Z,99742.50
2023-04-29T05:11:28.063Z,99745.06
2023-04-29T05:14:08.690Z,99754.38
2023-04-29T05:16:35.844Z,99751.03
2023-04-29T05:19:02.969Z,99765.41
2023-04-29T05:21:33.406Z,99768.81
2023-04-29T05:24:01.195Z,99762.88
2023-04-29T05:26:28.301Z,99770.50
2023-04-29T05:28:59.827Z,99770.47
2023-04-29T05:31:28.323Z,99769.63
2023-04-29T05:33:57.231Z,99771.34
2023-04-29T05:36:25.447Z,99767.97
2023-04-29T05:38:52.430Z,99781.47
2023-04-29T05:41:20.452Z,99780.63
2023-04-29T05:44:07.670Z,99784.88
2023-04-29T05:46:34.967Z,99778.09
2023-04-29T05:49:02.073Z,99784.81
2023-04-29T05:51:29.117Z,99781.44
2023-04-29T05:53:56.584Z,99795.84
2023-04-29T05:56:24.295Z,99803.44
2023-04-29T05:58:52.090Z,99803.44
2023-04-29T06:01:19.031Z,99808.50
2023-04-29T06:03:46.582Z,99816.97
2023-04-29T06:06:28.780Z,99824.56
2023-04-29T06:09:13.460Z,99832.19
2023-04-29T06:11:47.840Z,99831.31
2023-04-29T06:14:14.831Z,99822.84
2023-04-29T06:16:42.009Z,99824.50
2023-04-29T06:19:09.625Z,99838.91
2023-04-29T06:21:36.578Z,99831.25
2023-04-29T06:24:04.412Z,99832.88
2023-04-29T06:26:31.552Z,99834.56
2023-04-29T06:28:58.688Z,99838.72
2023-04-29T06:31:26.014Z,99846.31
2023-04-29T06:33:55.665Z,99842.88
2023-04-29T06:36:22.717Z,99854.72
2023-04-29T06:39:12.928Z,99859.75
2023-04-29T06:41:56.585Z,99859.75
2023-04-29T06:44:37.570Z,99858.84
2023-04-29T06:47:21.130Z,99857.13
2023-04-29T06:50:20.306Z,99859.59
2023-04-29T06:52:47.347Z,99862.09
2023-04-29T06:55:14.348Z,99866.34
2023-04-29T06:57:42.876Z,99864.59
2023-04-29T07:00:10.668Z,99872.22
2023-04-29T07:02:39.019Z,99877.28
2023-04-29T07:05:07.177Z,99877.28
2023-04-29T07:07:34.249Z,99879.81
2023-04-29T07:10:01.311Z,99874.72
2023-04-29T07:12:28.281Z,99879.78
2023-04-29T07:14:55.278Z,99879.78
2023-04-29T07:17:22.268Z,99889.97
2023-04-29T07:19:49.706Z,99901.00
2023-04-29T07:22:19.489Z,99903.53
2023-04-29T07:24:46.721Z,99900.94
2023-04-29T07:27:13.721Z,99900.06
2023-04-29T07:29:40.700Z,99906.84
2023-04-29T07:32:07.949Z,99909.38
2023-04-29T07:34:36.905Z,99910.19
2023-04-29T07:37:04.040Z,99911.91
2023-04-29T07:39:31.808Z,99915.28
2023-04-29T07:42:00.038Z,99919.53
2023-04-29T07:44:27.051Z,99916.97
2023-04-29T07:46:54.230Z,99918.66
2023-04-29T07:49:21.208Z,99923.72
2023-04-29T07:51:48.126Z,99922.84
2023-04-29T07:54:16.528Z,99926.28
2023-04-29T07:56:43.677Z,99934.75
2023-04-29T07:59:10.653Z,99929.66
2023-04-29T08:01:38.563Z,99944.91
2023-04-29T08:04:05.996Z,99938.09
2023-04-29T08:06:37.378Z,99940.63
2023-04-29T08:09:04.465Z,99947.44
2023-04-29T08:11:31.461Z,99950.84
2023-04-29T08:14:00.066Z,99948.31
2023-04-29T08:16:27.919Z,99954.28
2023-04-29T08:18:54.901Z,99961.91
2023-04-29T08:21:21.891Z,99965.31
2023-04-29T08:23:48.936Z,99970.41
2023-04-29T08:26:16.121Z,99967.78
2023-04-29T08:28:43.410Z,99963.50
2023-04-29T08:31:20.558Z,99967.66
2023-04-29T08:33:48.585Z,99970.09
2023-04-29T08:36:15.691Z,99978.50
2023-04-29T08:38:42.658Z,99976.75
2023-04-29T08:41:09.775Z,99979.28
2023-04-29T08:43:37.590Z,99980.88
2023-04-29T08:46:05.134Z,99990.97
2023-04-29T08:48:32.841Z,99990.88
2023-04-29T08:51:02.304Z,99989.09
2023-04-29T08:53:29.580Z,99981.34
2023-04-29T08:56:03.495Z,99984.63
2023-04-29T08:58:38.288Z,99981.06
2023-04-29T09:01:09.774Z,99985.97
2023-04-29T09:04:36.957Z,99984.03
2023-04-29T09:07:06.739Z,99981.34
2023-04-29T09:09:34.628Z,99988.03
2023-04-29T09:12:01.836Z,99986.22
2023-04-29T09:14:34.242Z,99986.22
2023-04-29T09:17:04.201Z,99993.88
2023-04-29T09:19:36.347Z,99999.00
2023-04-29T09:22:07.112Z,99995.13
2023-04-29T09:24:34.306Z,99991.81
2023-04-29T09:27:03.300Z,99996.94
2023-04-29T09:29:32.891Z,100002.84
2023-04-29T09:32:00.125Z,100006.09
2023-04-29T09:34:40.791Z,100004.22
2023-04-29T09:37:28.844Z,100010.94
2023-04-29T09:39:55.977Z,100019.41
2023-04-29T09:42:25.193Z,100022.75
2023-04-29T09:44:54.621Z,100023.56
2023-04-29T09:47:31.810Z,100023.59
2023-04-29T09:50:13.836Z,100023.66
2023-04-29T09:52:43.072Z,100030.53
2023-04-29T09:55:11.351Z,100029.69
2023-04-29T09:57:44.885Z,100031.44
2023-04-29T10:00:14.656Z,100034.88
2023-04-29T10:02:46.631Z,100038.25
2023-04-29T10:05:16.262Z,100034.84
2023-04-29T10:07:45.056Z,100033.03
2023-04-29T10:10:13.697Z,100040.28
2023-04-29T10:12:41.737Z,100035.41
2023-04-29T10:15:38.975Z,100033.63
2023-04-29T10:18:22.112Z,100031.28
2023-04-29T10:20:50.882Z,100042.63
2023-04-29T10:23:21.333Z,100039.06
2023-04-29T10:25:52.722Z,100042.63
2023-04-29T10:28:23.016Z,100045.63
2023-04-29T10:30:52.343Z,100044.41
2023-04-29T10:33:21.610Z,100044.19
2023-04-29T10:35:50.835Z,100036.47
2023-04-29T10:38:29.094Z,100038.94
2023-04-29T10:41:04.163Z,100041.56
2023-04-29T10:43:31.904Z,100035.56
2023-04-29T10:46:19.292Z,100038.09
2023-04-29T10:48:57.454Z,100040.75
2023-04-29T10:51:33.708Z,100039.16
2023-04-29T10:54:05.231Z,100044.47
2023-04-29T10:56:56.150Z,100043.25
2023-04-29T10:59:42.979Z,100043.59
2023-04-29T11:02:12.765Z,100037.03
2023-04-29T11:05:12.498Z,100045.00
2023-04-29T11:07:40.267Z,100046.81
2023-04-29T11:10:07.822Z,100041.72
2023-04-29T11:12:34.818Z,100049.56
2023-04-29T11:15:03.126Z,100052.28
2023-04-29T11:17:37.781Z,100047.47
2023-04-29T11:20:10.241Z,100053.75
2023-04-29T11:22:38.044Z,100048.03
2023-04-29T11:25:09.575Z,100046.69
2023-04-29T11:27:39.937Z,100045.31
2023-04-29T11:30:08.101Z,100048.97
2023-04-29T11:32:40.332Z,100050.91
2023-04-29T11:35:12.437Z,100053.63
2023-04-29T11:37:41.284Z,100055.44
2023-04-29T11:40:09.814Z,100054.63
2023-04-29T11:42:43.906Z,100059.78
2023-04-29T11:45:12.154Z,100059.09
2023-04-29T11:47:45.540Z,100060.91
2023-04-29T11:50:15.835Z,100067.94
2023-04-29T11:52:42.875Z,100063.88
2023-04-29T11:55:11.852Z,100066.66
2023-04-29T11:57:40.236Z,100068.56
2023-04-29T12:00:12.792Z,100085.03
2023-04-29T12:02:47.107Z,100069.16
2023-04-29T12:05:16.554Z,100075.28
2023-04-29T12:07:44.595Z,100074.53
2023-04-29T12:10:12.739Z,100079.72
2023-04-29T12:12:47.329Z,100076.25
2023-04-29T12:15:15.175Z,100074.44
2023-04-29T12:17:43.510Z,100070.88
2023-04-29T12:20:12.237Z,100074.09
2023-04-29T12:22:39.846Z,100073.94
2023-04-29T12:25:07.915Z,100068.69
2023-04-29T12:27:36.831Z,100072.88
2023-04-29T12:30:09.486Z,100077.94
2023-04-29T12:32:38.208Z,100075.44
2023-04-29T12:35:06.071Z,100076.25
2023-04-29T12:37:34.545Z,100080.47
2023-04-29T12:40:01.573Z,100082.13
2023-04-29T12:42:34.632Z,100081.22
2023-04-29T12:45:02.608Z,100082.03
2023-04-29T12:47:34.788Z,100083.66
2023-04-29T12:50:02.073Z,100077.56
2023-04-29T12:52:29.093Z,100079.09
2023-04-29T12:54:57.767Z,100073.84
2023-04-29T12:57:26.401Z,100082.22
2023-04-29T12:59:53.627Z,100077.84
2023-04-29T13:02:20.815Z,100090.53
2023-04-29T13:04:48.080Z,100093.03
2023-04-29T13:07:15.718Z,100093.03
2023-04-29T13:09:42.688Z,100088.78
2023-04-29T13:12:09.824Z,100092.25
2023-04-29T13:14:36.867Z,100091.44
2023-04-29T13:17:04.125Z,100096.50
2023-04-29T13:19:49.738Z,100092.22
2023-04-29T13:22:18.088Z,100098.88
2023-04-29T13:24:45.040Z,100095.25
2023-04-29T13:27:12.168Z,100097.59
2023-04-29T13:29:39.098Z,100092.31
2023-04-29T13:32:06.087Z,100088.69
2023-04-29T13:34:33.092Z,100090.25
2023-04-29T13:37:00.042Z,100086.69
2023-04-29T13:39:27.324Z,100086.56
2023-04-29T13:41:58.726Z,100088.09
2023-04-29T13:44:33.296Z,100089.53
2023-04-29T13:47:06.536Z,100090.13
2023-04-29T13:52:58.397Z,100084.19
2023-04-29T13:55:14.794Z,100090.66
2023-04-29T14:00:31.578Z,100089.09
2023-04-29T14:05:28.888Z,100094.50
2023-04-29T14:07:55.961Z,100088.16
2023-04-29T14:10:22.910Z,100099.72
2023-04-29T14:12:49.881Z,100099.38
2023-04-29T14:15:17.043Z,100105.78
2023-04-29T14:17:44.637Z,100095.09
2023-04-29T14:20:12.404Z,100094.03
2023-04-29T14:22:39.346Z,100094.81
2023-04-29T14:25:08.233Z,100099.00
2023-04-29T14:27:36.756Z,100096.13
2023-04-29T14:30:05.372Z,100091.38
2023-04-29T14:32:32.306Z,100103.81
2023-04-29T14:34:59.382Z,100107.81
2023-04-29T14:37:26.754Z,100094.59
2023-04-29T14:39:53.797Z,100102.03
2023-04-29T14:42:20.928Z,100101.84
2023-04-29T14:44:47.828Z,100115.59
2023-04-29T14:47:14.761Z,100115.59
2023-04-29T14:49:42.627Z,100119.13
2023-04-29T14:52:09.880Z,100124.47
2023-04-29T14:54:36.860Z,100125.47
2023-04-29T14:57:03.897Z,100123.84
2023-04-29T14:59:32.086Z,100120.56
2023-04-29T15:01:59.792Z,100119.16
2023-04-29T15:04:27.830Z,100122.03
2023-04-29T15:06:55.387Z,100117.97
2023-04-29T15:09:23.319Z,100117.22
2023-04-29T15:11:50.363Z,100119.78
2023-04-29T15:14:17.307Z,100121.56
2023-04-29T15:16:44.291Z,100119.22
2023-04-29T15:19:11.306Z,100116.88
2023-04-29T15:21:38.240Z,100114.59
2023-04-29T15:24:07.213Z,100125.97
2023-04-29T15:26:34.229Z,100126.31
2023-04-29T15:29:01.368Z,100130.19
2023-04-29T15:31:29.373Z,100127.16
2023-04-29T15:33:56.395Z,100131.66
2023-04-29T15:36:33.192Z,100136.28
2023-04-29T15:39:00.204Z,100135.81
2023-04-29T15:41:27.241Z,100141.31
2023-04-29T15:43:57.256Z,100131.44
2023-04-29T15:46:24.390Z,100130.97
2023-04-29T15:48:51.402Z,100140.63
2023-04-29T15:51:18.709Z,100138.38
2023-04-29T15:53:45.744Z,100135.16
2023-04-29T15:56:13.264Z,100140.53
2023-04-29T15:58:40.354Z,100135.59
2023-04-29T16:01:07.758Z,100140.97
2023-04-29T16:03:34.911Z,100135.28
2023-04-29T16:06:02.088Z,100142.31
2023-04-29T16:08:29.201Z,100134.81
2023-04-29T16:10:56.166Z,100138.38
2023-04-29T16:13:23.280Z,100141.91
2023-04-29T16:15:50.299Z,100144.59
2023-04-29T16:18:17.938Z,100143.84
2023-04-29T16:20:45.447Z,100141.41
2023-04-29T16:23:12.427Z,100147.44
2023-04-29T16:25:41.823Z,100148.38
2023-04-29T16:28:08.823Z,100156.13
2023-04-29T16:30:36.200Z,100157.88
2023-04-29T16:33:04.461Z,100163.97
2023-04-29T16:35:31.619Z,100161.44
2023-04-29T16:37:58.563Z,100158.97
2023-04-29T16:40:25.779Z,100158.13
2023-04-29T16:42:53.443Z,100153.88
2023-04-29T16:45:23.614Z,100154.78
2023-04-29T16:47:51.211Z,100149.72
2023-04-29T16:50:18.764Z,100148.00
2023-04-29T16:52:45.913Z,100156.59
2023-04-29T16:55:13.328Z,100152.31
2023-04-29T16:57:40.381Z,100148.00
2023-04-29T17:00:11.801Z,100154.81
2023-04-29T17:02:43.009Z,100165.06
2023-04-29T17:05:10.951Z,100159.94
2023-04-29T17:07:38.576Z,100160.81
2023-04-29T17:10:07.139Z,100159.06
2023-04-29T17:12:34.162Z,100161.63
2023-04-29T17:15:01.192Z,100159.06
2023-04-29T17:17:28.330Z,100168.50
2023-04-29T17:19:55.794Z,100168.50
2023-04-29T17:22:23.012Z,100163.38
2023-04-29T17:24:50.796Z,100168.50
2023-04-29T17:27:18.093Z,100161.69
2023-04-29T17:29:45.158Z,100162.53
2023-04-29T17:32:15.187Z,100163.44
2023-04-29T17:34:42.243Z,100163.53
2023-04-29T17:37:09.691Z,100163.53
2023-04-29T17:39:36.776Z,100161.00
2023-04-29T17:42:03.814Z,100158.47
2023-04-29T17:44:30.854Z,100155.13
2023-04-29T17:46:57.792Z,100154.41
2023-04-29T17:49:25.213Z,100143.38
2023-04-29T17:51:52.479Z,100142.56
2023-04-29T17:54:19.522Z,100145.19
2023-04-29T17:56:46.453Z,100138.41
2023-04-29T17:59:13.441Z,100139.38
2023-04-29T18:01:40.580Z,100141.19
2023-04-29T18:04:07.800Z,100140.34
2023-04-29T18:06:35.085Z,100151.44
2023-04-29T18:09:02.225Z,100154.84
2023-04-29T18:11:29.541Z,100157.44
2023-04-29T18:13:56.972Z,100156.56
2023-04-29T18:16:24.668Z,100160.88
2023-04-29T18:18:52.083Z,100154.97
2023-04-29T18:21:22.703Z,100154.28
2023-04-29T18:23:50.684Z,100154.41
2023-04-29T18:26:18.071Z,100158.84
2023-04-29T18:28:48.552Z,100162.44
2023-04-29T18:31:17.179Z,100157.47
2023-04-29T18:33:45.027Z,100161.06
2023-04-29T18:36:14.144Z,100163.78
2023-04-29T18:38:41.342Z,100169.03
2023-04-29T18:41:08.643Z,100176.81
2023-04-29T18:43:36.536Z,100172.66
2023-04-29T18:46:03.814Z,100169.38
2023-04-29T18:48:31.153Z,100171.19
2023-04-29T18:51:00.380Z,100170.44
2023-04-29T18:53:27.478Z,100174.00
2023-04-29T18:55:54.596Z,100164.75
2023-04-29T18:58:22.065Z,100178.47
2023-04-29T19:00:49.151Z,100173.50
2023-04-29T19:03:16.368Z,100177.88
2023-04-29T19:05:43.944Z,100183.91
2023-04-29T19:08:11.450Z,100185.75
2023-04-29T19:10:38.576Z,100189.38
2023-04-29T19:13:05.858Z,100191.34
2023-04-29T19:15:33.024Z,100198.44
2023-04-29T19:18:00.176Z,100199.50
2023-04-29T19:20:27.872Z,100200.44
2023-04-29T19:22:55.063Z,100204.81
2023-04-29T19:25:22.857Z,100193.00
2023-04-29T19:27:53.229Z,100211.81
2023-04-29T19:30:20.535Z,100209.38
2023-04-29T19:32:48.959Z,100204.34
2023-04-29T19:35:16.013Z,100206.06
2023-04-29T19:37:43.189Z,100207.81
2023-04-29T19:40:11.183Z,100204.47
2023-04-29T19:42:39.294Z,100204.53
2023-04-29T19:45:08.072Z,100219.88
2023-04-29T19:47:35.486Z,100212.84
2023-04-29T19:50:03.067Z,100213.81
2023-04-29T19:52:30.234Z,100213.09
2023-04-29T19:54:57.580Z,100213.16
2023-04-29T19:57:25.006Z,100211.53
2023-04-29T19:59:52.282Z,100218.34
2023-04-29T20:02:19.703Z,100219.22
2023-04-29T20:04:46.774Z,100215.06
2023-04-29T20:07:13.789Z,100216.78
2023-04-29T20:09:41.554Z,100225.25
2023-04-29T20:12:08.558Z,100227.84
2023-04-29T20:14:36.375Z,100222.75
2023-04-29T20:17:03.535Z,100236.34
2023-04-29T20:19:31.304Z,100238.06
2023-04-29T20:21:58.345Z,100233.84
2023-04-29T20:24:25.340Z,100233.84
2023-04-29T20:26:52.304Z,100233.03
2023-04-29T20:29:19.307Z,100233.88
2023-04-29T20:31:46.377Z,100228.84
2023-04-29T20:34:13.506Z,100229.66
2023-04-29T20:36:40.684Z,100239.00
2023-04-29T20:39:09.332Z,100243.06
2023-04-29T20:41:36.486Z,100244.84
2023-04-29T20:44:03.582Z,100242.34
2023-04-29T20:46:30.692Z,100242.38
2023-04-29T20:48:57.778Z,100233.94
2023-04-29T20:51:24.865Z,100245.78
2023-04-29T20:53:51.936Z,100241.56
2023-04-29T20:56:18.942Z,100244.13
2023-04-29T20:58:45.920Z,100247.50
2023-04-29T21:01:12.986Z,100256.81
2023-04-29T21:03:40.520Z,100250.03
2023-04-29T21:06:07.711Z,100252.56
2023-04-29T21:08:35.156Z,100262.75
2023-04-29T21:11:02.131Z,100253.41
2023-04-29T21:13:29.384Z,100257.66
2023-04-29T21:15:57.858Z,100257.66
2023-04-29T21:18:26.388Z,100268.66
2023-04-29T21:20:54.493Z,100261.88
2023-04-29T21:23:23.064Z,100262.72
2023-04-29T21:25:50.651Z,100262.72
2023-04-29T21:28:17.611Z,100265.19
2023-04-29T21:30:44.608Z,100260.16
2023-04-29T21:33:11.732Z,100261.88
2023-04-29T21:35:42.212Z,100272.91
2023-04-29T21:38:09.563Z,100268.66
2023-04-29T21:40:42.151Z,100269.50
2023-04-29T21:43:10.788Z,100265.28
2023-04-29T21:45:38.460Z,100273.75
2023-04-29T21:48:20.478Z,100277.16
2023-04-29T21:50:48.170Z,100274.59
2023-04-29T21:53:16.557Z,100282.22
2023-04-29T21:55:43.944Z,100269.53
2023-04-29T21:58:11.287Z,100277.13
2023-04-29T22:00:40.637Z,100273.75
2023-04-29T22:03:10.259Z,100273.75
2023-04-29T22:05:37.395Z,100286.47
2023-04-29T22:08:07.414Z,100286.44
2023-04-29T22:10:34.780Z,100277.97
2023-04-29T22:13:01.871Z,100288.13
2023-04-29T22:15:29.935Z,100288.97
2023-04-29T22:17:57.577Z,100286.44
2023-04-29T22:20:25.334Z,100284.75
2023-04-29T22:22:52.482Z,100289.00
2023-04-29T22:25:21.481Z,100289.84
2023-04-29T22:27:49.493Z,100296.63
2023-04-29T22:30:17.739Z,100290.69
2023-04-29T22:32:45.264Z,100295.78
2023-04-29T22:35:12.761Z,100296.63
2023-04-29T22:37:39.883Z,100300.84
2023-04-29T22:40:08.239Z,100302.53
2023-04-29T22:42:35.283Z,100306.78
2023-04-29T22:45:05.466Z,100305.94
2023-04-29T22:47:32.753Z,100305.94
2023-04-29T22:49:59.746Z,100305.09
2023-04-29T22:52:27.443Z,100299.13
2023-04-29T22:54:54.406Z,100302.53
2023-04-29T22:57:21.477Z,100309.28
2023-04-29T22:59:49.100Z,100303.38
2023-04-29T23:02:16.025Z,100301.69
2023-04-29T23:04:43.022Z,100297.44
2023-04-29T23:07:10.023Z,100305.06
2023-04-29T23:09:36.976Z,100309.28
2023-04-29T23:12:04.162Z,100314.38
2023-04-29T23:14:31.349Z,100308.44
2023-04-29T23:16:58.327Z,100310.13
2023-04-29T23:19:25.897Z,100317.75
2023-04-29T23:21:53.071Z,100314.34
2023-04-29T23:24:20.038Z,100313.47
2023-04-29T23:26:47.012Z,100321.09
2023-04-29T23:29:13.951Z,100322.78
2023-04-29T23:31:40.967Z,100322.75
2023-04-29T23:34:08.203Z,100322.72
2023-04-29T23:36:35.377Z,100325.22
2023-04-29T23:39:02.532Z,100319.28
2023-04-29T23:41:29.451Z,100315.88
2023-04-29T23:44:00.908Z,100322.63
2023-04-29T23:46:28.140Z,100320.00
2023-04-29T23:48:55.169Z,100319.97
2023-04-29T23:51:22.121Z,100325.88
2023-04-29T23:53:49.066Z,100320.75
2023-04-29T23:56:15.996Z,100328.31
2023-04-29T23:58:42.941Z,100324.06
